sensor_id;sensor_type;location;lat;lon;timestamp;temperature;humidity
7360;DHT22;3720;48.274;7.796;2023-05-02T00:00:52;12.40;99.90
7360;DHT22;3720;48.274;7.796;2023-05-02T00:03:26;12.40;99.90
7360;DHT22;3720;48.274;7.796;2023-05-02T00:05:59;12.30;99.90
7360;DHT22;3720;48.274;7.796;2023-05-02T00:08:31;12.20;99.90
7360;DHT22;3720;48.274;7.796;2023-05-02T00:11:03;12.20;99.90
7360;DHT22;3720;48.274;7.796;2023-05-02T00:13:35;12.20;99.90
7360;DHT22;3720;48.274;7.796;2023-05-02T00:16:07;12.10;99.90
7360;DHT22;3720;48.274;7.796;2023-05-02T00:18:42;12.10;99.90
7360;DHT22;3720;48.274;7.796;2023-05-02T00:21:14;12.10;99.90
7360;DHT22;3720;48.274;7.796;2023-05-02T00:23:46;12.00;99.90
7360;DHT22;3720;48.274;7.796;2023-05-02T00:26:17;12.00;99.90
7360;DHT22;3720;48.274;7.796;2023-05-02T00:28:49;11.90;99.90
7360;DHT22;3720;48.274;7.796;2023-05-02T00:31:21;11.90;99.90
7360;DHT22;3720;48.274;7.796;2023-05-02T00:33:55;11.80;99.90
7360;DHT22;3720;48.274;7.796;2023-05-02T00:36:26;11.70;99.90
7360;DHT22;3720;48.274;7.796;2023-05-02T00:38:58;11.60;99.90
7360;DHT22;3720;48.274;7.796;2023-05-02T00:41:30;11.50;99.90
7360;DHT22;3720;48.274;7.796;2023-05-02T00:44:02;11.50;99.90
7360;DHT22;3720;48.274;7.796;2023-05-02T00:46:34;11.50;99.90
7360;DHT22;3720;48.274;7.796;2023-05-02T00:49:07;11.40;99.90
7360;DHT22;3720;48.274;7.796;2023-05-02T00:51:39;11.50;99.90
7360;DHT22;3720;48.274;7.796;2023-05-02T00:54:11;11.50;99.90
7360;DHT22;3720;48.274;7.796;2023-05-02T00:56:43;11.40;99.90
7360;DHT22;3720;48.274;7.796;2023-05-02T00:59:16;11.40;99.90
7360;DHT22;3720;48.274;7.796;2023-05-02T01:01:54;11.40;99.90
7360;DHT22;3720;48.274;7.796;2023-05-02T01:04:39;11.40;99.90
7360;DHT22;3720;48.274;7.796;2023-05-02T01:07:24;11.40;99.90
7360;DHT22;3720;48.274;7.796;2023-05-02T01:10:08;11.50;99.90
7360;DHT22;3720;48.274;7.796;2023-05-02T01:12:47;11.50;99.90
7360;DHT22;3720;48.274;7.796;2023-05-02T01:15:23;11.50;99.90
7360;DHT22;3720;48.274;7.796;2023-05-02T01:17:56;11.50;99.90
7360;DHT22;3720;48.274;7.796;2023-05-02T01:20:35;11.50;99.90
7360;DHT22;3720;48.274;7.796;2023-05-02T01:23:16;11.50;99.90
7360;DHT22;3720;48.274;7.796;2023-05-02T01:26:06;11.50;99.90
7360;DHT22;3720;48.274;7.796;2023-05-02T01:28:56;11.50;99.90
7360;DHT22;3720;48.274;7.796;2023-05-02T01:31:31;11.40;99.90
7360;DHT22;3720;48.274;7.796;2023-05-02T01:34:05;11.50;99.90
7360;DHT22;3720;48.274;7.796;2023-05-02T01:36:42;11.50;99.90
7360;DHT22;3720;48.274;7.796;2023-05-02T01:39:19;11.60;99.90
7360;DHT22;3720;48.274;7.796;2023-05-02T01:41:54;11.60;99.90
7360;DHT22;3720;48.274;7.796;2023-05-02T01:44:29;11.60;99.90
7360;DHT22;3720;48.274;7.796;2023-05-02T01:47:04;11.50;99.90
7360;DHT22;3720;48.274;7.796;2023-05-02T01:49:37;11.50;99.90
7360;DHT22;3720;48.274;7.796;2023-05-02T01:52:10;11.50;99.90
7360;DHT22;3720;48.274;7.796;2023-05-02T01:54:44;11.40;99.90
7360;DHT22;3720;48.274;7.796;2023-05-02T01:57:17;11.40;99.90
7360;DHT22;3720;48.274;7.796;2023-05-02T01:59:53;11.30;99.90
7360;DHT22;3720;48.274;7.796;2023-05-02T02:02:28;11.30;99.90
7360;DHT22;3720;48.274;7.796;2023-05-02T02:05:02;11.30;99.90
7360;DHT22;3720;48.274;7.796;2023-05-02T02:07:35;11.20;99.90
7360;DHT22;3720;48.274;7.796;2023-05-02T02:10:08;11.20;99.90
7360;DHT22;3720;48.274;7.796;2023-05-02T02:12:42;11.20;99.90
7360;DHT22;3720;48.274;7.796;2023-05-02T02:15:20;11.20;99.90
7360;DHT22;3720;48.274;7.796;2023-05-02T02:17:56;11.10;99.90
7360;DHT22;3720;48.274;7.796;2023-05-02T02:20:30;11.10;99.90
7360;DHT22;3720;48.274;7.796;2023-05-02T02:23:06;11.10;99.90
7360;DHT22;3720;48.274;7.796;2023-05-02T02:25:39;11.10;99.90
7360;DHT22;3720;48.274;7.796;2023-05-02T02:28:11;11.10;99.90
7360;DHT22;3720;48.274;7.796;2023-05-02T02:30:45;11.00;99.90
7360;DHT22;3720;48.274;7.796;2023-05-02T02:33:17;11.00;99.90
7360;DHT22;3720;48.274;7.796;2023-05-02T02:35:55;11.00;99.90
7360;DHT22;3720;48.274;7.796;2023-05-02T02:38:33;11.10;99.90
7360;DHT22;3720;48.274;7.796;2023-05-02T02:41:12;10.90;99.90
7360;DHT22;3720;48.274;7.796;2023-05-02T02:43:52;10.90;99.90
7360;DHT22;3720;48.274;7.796;2023-05-02T02:46:43;10.80;99.90
7360;DHT22;3720;48.274;7.796;2023-05-02T02:49:26;10.80;99.90
7360;DHT22;3720;48.274;7.796;2023-05-02T02:52:04;10.80;99.90
7360;DHT22;3720;48.274;7.796;2023-05-02T02:54:45;10.70;99.90
7360;DHT22;3720;48.274;7.796;2023-05-02T02:57:22;10.80;99.90
7360;DHT22;3720;48.274;7.796;2023-05-02T03:00:00;10.70;99.90
7360;DHT22;3720;48.274;7.796;2023-05-02T03:02:35;10.80;99.90
7360;DHT22;3720;48.274;7.796;2023-05-02T03:05:09;10.70;99.90
7360;DHT22;3720;48.274;7.796;2023-05-02T03:07:41;10.70;99.90
7360;DHT22;3720;48.274;7.796;2023-05-02T03:10:13;10.70;99.90
7360;DHT22;3720;48.274;7.796;2023-05-02T03:12:45;10.60;99.90
7360;DHT22;3720;48.274;7.796;2023-05-02T03:15:29;10.50;99.90
7360;DHT22;3720;48.274;7.796;2023-05-02T03:18:12;10.50;99.90
7360;DHT22;3720;48.274;7.796;2023-05-02T03:20:44;10.50;99.90
7360;DHT22;3720;48.274;7.796;2023-05-02T03:23:16;10.50;99.90
7360;DHT22;3720;48.274;7.796;2023-05-02T03:25:48;10.50;99.90
7360;DHT22;3720;48.274;7.796;2023-05-02T03:28:19;10.50;99.90
7360;DHT22;3720;48.274;7.796;2023-05-02T03:30:51;10.50;99.90
7360;DHT22;3720;48.274;7.796;2023-05-02T03:33:25;10.50;99.90
7360;DHT22;3720;48.274;7.796;2023-05-02T03:35:57;10.50;99.90
7360;DHT22;3720;48.274;7.796;2023-05-02T03:38:29;10.50;99.90
7360;DHT22;3720;48.274;7.796;2023-05-02T03:41:01;10.60;99.90
7360;DHT22;3720;48.274;7.796;2023-05-02T03:43:34;10.60;99.90
7360;DHT22;3720;48.274;7.796;2023-05-02T03:46:07;10.60;99.90
7360;DHT22;3720;48.274;7.796;2023-05-02T03:48:42;10.60;99.90
7360;DHT22;3720;48.274;7.796;2023-05-02T03:51:15;10.60;99.90
7360;DHT22;3720;48.274;7.796;2023-05-02T03:53:47;10.70;99.90
7360;DHT22;3720;48.274;7.796;2023-05-02T03:56:19;10.70;99.90
7360;DHT22;3720;48.274;7.796;2023-05-02T03:58:51;10.70;99.90
7360;DHT22;3720;48.274;7.796;2023-05-02T04:01:23;10.70;99.90
7360;DHT22;3720;48.274;7.796;2023-05-02T04:03:56;10.70;99.90
7360;DHT22;3720;48.274;7.796;2023-05-02T04:06:28;10.70;99.90
7360;DHT22;3720;48.274;7.796;2023-05-02T04:09:01;10.70;99.90
7360;DHT22;3720;48.274;7.796;2023-05-02T04:11:33;10.70;99.90
7360;DHT22;3720;48.274;7.796;2023-05-02T04:14:05;10.70;99.90
7360;DHT22;3720;48.274;7.796;2023-05-02T04:16:37;10.70;99.90
7360;DHT22;3720;48.274;7.796;2023-05-02T04:19:10;10.60;99.90
7360;DHT22;3720;48.274;7.796;2023-05-02T04:21:42;10.70;99.90
7360;DHT22;3720;48.274;7.796;2023-05-02T04:24:15;10.70;99.90
7360;DHT22;3720;48.274;7.796;2023-05-02T04:26:46;10.70;99.90
7360;DHT22;3720;48.274;7.796;2023-05-02T04:29:18;10.70;99.90
7360;DHT22;3720;48.274;7.796;2023-05-02T04:31:50;10.60;99.90
7360;DHT22;3720;48.274;7.796;2023-05-02T04:34:24;10.60;99.90
7360;DHT22;3720;48.274;7.796;2023-05-02T04:36:58;10.60;99.90
7360;DHT22;3720;48.274;7.796;2023-05-02T04:39:30;10.50;99.90
7360;DHT22;3720;48.274;7.796;2023-05-02T04:42:02;10.50;99.90
7360;DHT22;3720;48.274;7.796;2023-05-02T04:44:35;10.50;99.90
7360;DHT22;3720;48.274;7.796;2023-05-02T04:47:07;10.50;99.90
7360;DHT22;3720;48.274;7.796;2023-05-02T04:49:41;10.50;99.90
7360;DHT22;3720;48.274;7.796;2023-05-02T04:52:13;10.60;99.90
7360;DHT22;3720;48.274;7.796;2023-05-02T04:54:45;10.60;99.90
7360;DHT22;3720;48.274;7.796;2023-05-02T04:57:17;10.60;99.90
7360;DHT22;3720;48.274;7.796;2023-05-02T04:59:49;10.60;99.90
7360;DHT22;3720;48.274;7.796;2023-05-02T05:02:21;10.60;99.90
7360;DHT22;3720;48.274;7.796;2023-05-02T05:04:56;10.60;99.90
7360;DHT22;3720;48.274;7.796;2023-05-02T05:07:28;10.70;99.90
7360;DHT22;3720;48.274;7.796;2023-05-02T05:10:00;10.70;99.90
7360;DHT22;3720;48.274;7.796;2023-05-02T05:12:32;10.70;99.90
7360;DHT22;3720;48.274;7.796;2023-05-02T05:15:04;10.80;99.90
7360;DHT22;3720;48.274;7.796;2023-05-02T05:17:36;10.80;99.90
7360;DHT22;3720;48.274;7.796;2023-05-02T05:20:10;10.80;99.90
7360;DHT22;3720;48.274;7.796;2023-05-02T05:22:43;10.80;99.90
7360;DHT22;3720;48.274;7.796;2023-05-02T05:25:15;10.90;99.90
7360;DHT22;3720;48.274;7.796;2023-05-02T05:27:46;10.90;99.90
7360;DHT22;3720;48.274;7.796;2023-05-02T05:30:18;11.00;99.90
7360;DHT22;3720;48.274;7.796;2023-05-02T05:32:50;11.00;99.90
7360;DHT22;3720;48.274;7.796;2023-05-02T05:35:24;11.10;99.90
7360;DHT22;3720;48.274;7.796;2023-05-02T05:37:56;11.20;99.90
7360;DHT22;3720;48.274;7.796;2023-05-02T05:40:28;11.20;99.90
7360;DHT22;3720;48.274;7.796;2023-05-02T05:42:59;11.20;99.90
7360;DHT22;3720;48.274;7.796;2023-05-02T05:45:32;11.30;99.90
7360;DHT22;3720;48.274;7.796;2023-05-02T05:48:05;11.30;99.90
7360;DHT22;3720;48.274;7.796;2023-05-02T05:50:38;11.30;99.90
7360;DHT22;3720;48.274;7.796;2023-05-02T05:53:10;11.30;99.90
7360;DHT22;3720;48.274;7.796;2023-05-02T05:55:42;11.40;99.90
7360;DHT22;3720;48.274;7.796;2023-05-02T05:58:14;11.40;99.90
7360;DHT22;3720;48.274;7.796;2023-05-02T06:00:46;11.40;99.90
7360;DHT22;3720;48.274;7.796;2023-05-02T06:03:18;11.50;99.90
7360;DHT22;3720;48.274;7.796;2023-05-02T06:05:52;11.50;99.90
7360;DHT22;3720;48.274;7.796;2023-05-02T06:08:34;11.60;99.90
7360;DHT22;3720;48.274;7.796;2023-05-02T06:11:08;11.70;99.90
7360;DHT22;3720;48.274;7.796;2023-05-02T06:13:40;11.80;99.90
7360;DHT22;3720;48.274;7.796;2023-05-02T06:16:12;11.90;99.90
7360;DHT22;3720;48.274;7.796;2023-05-02T06:18:44;12.00;99.90
7360;DHT22;3720;48.274;7.796;2023-05-02T06:21:18;12.00;99.90
7360;DHT22;3720;48.274;7.796;2023-05-02T06:23:49;12.20;99.90
7360;DHT22;3720;48.274;7.796;2023-05-02T06:26:21;12.30;99.90
7360;DHT22;3720;48.274;7.796;2023-05-02T06:28:53;12.40;99.90
7360;DHT22;3720;48.274;7.796;2023-05-02T06:31:26;12.60;99.90
7360;DHT22;3720;48.274;7.796;2023-05-02T06:33:58;12.70;99.90
7360;DHT22;3720;48.274;7.796;2023-05-02T06:36:31;12.70;99.90
7360;DHT22;3720;48.274;7.796;2023-05-02T06:39:03;12.90;99.90
7360;DHT22;3720;48.274;7.796;2023-05-02T06:41:35;13.00;99.90
7360;DHT22;3720;48.274;7.796;2023-05-02T06:44:07;13.10;99.90
7360;DHT22;3720;48.274;7.796;2023-05-02T06:46:39;13.20;99.90
7360;DHT22;3720;48.274;7.796;2023-05-02T06:49:10;13.30;99.90
7360;DHT22;3720;48.274;7.796;2023-05-02T06:51:44;13.40;99.90
7360;DHT22;3720;48.274;7.796;2023-05-02T06:54:16;13.50;99.90
7360;DHT22;3720;48.274;7.796;2023-05-02T06:56:47;13.60;99.90
7360;DHT22;3720;48.274;7.796;2023-05-02T06:59:19;13.70;99.90
7360;DHT22;3720;48.274;7.796;2023-05-02T07:01:51;13.80;99.90
7360;DHT22;3720;48.274;7.796;2023-05-02T07:04:23;13.90;99.90
7360;DHT22;3720;48.274;7.796;2023-05-02T07:06:56;14.00;99.90
7360;DHT22;3720;48.274;7.796;2023-05-02T07:09:28;14.20;99.90
7360;DHT22;3720;48.274;7.796;2023-05-02T07:12:00;14.30;99.90
7360;DHT22;3720;48.274;7.796;2023-05-02T07:14:33;14.30;99.90
7360;DHT22;3720;48.274;7.796;2023-05-02T07:17:04;14.40;99.90
7360;DHT22;3720;48.274;7.796;2023-05-02T07:19:36;14.60;99.90
7360;DHT22;3720;48.274;7.796;2023-05-02T07:22:10;14.60;99.90
7360;DHT22;3720;48.274;7.796;2023-05-02T07:24:42;14.70;99.90
7360;DHT22;3720;48.274;7.796;2023-05-02T07:27:14;14.70;99.90
7360;DHT22;3720;48.274;7.796;2023-05-02T07:29:46;14.70;99.90
7360;DHT22;3720;48.274;7.796;2023-05-02T07:32:19;14.70;99.90
7360;DHT22;3720;48.274;7.796;2023-05-02T07:34:52;14.80;99.90
7360;DHT22;3720;48.274;7.796;2023-05-02T07:37:31;14.90;99.90
7360;DHT22;3720;48.274;7.796;2023-05-02T07:40:05;15.00;99.90
7360;DHT22;3720;48.274;7.796;2023-05-02T07:42:37;15.20;99.90
7360;DHT22;3720;48.274;7.796;2023-05-02T07:45:10;15.40;99.90
7360;DHT22;3720;48.274;7.796;2023-05-02T07:47:42;15.50;99.90
7360;DHT22;3720;48.274;7.796;2023-05-02T07:50:14;15.60;99.90
7360;DHT22;3720;48.274;7.796;2023-05-02T07:52:47;15.70;99.90
7360;DHT22;3720;48.274;7.796;2023-05-02T07:55:20;15.70;99.90
7360;DHT22;3720;48.274;7.796;2023-05-02T07:57:52;15.80;99.90
7360;DHT22;3720;48.274;7.796;2023-05-02T08:00:23;15.80;99.90
7360;DHT22;3720;48.274;7.796;2023-05-02T08:02:55;15.80;99.90
7360;DHT22;3720;48.274;7.796;2023-05-02T08:05:27;15.80;99.90
7360;DHT22;3720;48.274;7.796;2023-05-02T08:08:00;15.90;99.90
7360;DHT22;3720;48.274;7.796;2023-05-02T08:10:33;15.90;99.90
7360;DHT22;3720;48.274;7.796;2023-05-02T08:13:05;16.00;99.90
7360;DHT22;3720;48.274;7.796;2023-05-02T08:15:37;16.10;99.90
7360;DHT22;3720;48.274;7.796;2023-05-02T08:18:08;16.30;99.90
7360;DHT22;3720;48.274;7.796;2023-05-02T08:20:42;16.40;99.90
7360;DHT22;3720;48.274;7.796;2023-05-02T08:23:15;16.40;99.90
7360;DHT22;3720;48.274;7.796;2023-05-02T08:25:47;16.60;99.90
7360;DHT22;3720;48.274;7.796;2023-05-02T08:28:19;16.70;99.90
7360;DHT22;3720;48.274;7.796;2023-05-02T08:30:51;16.80;99.90
7360;DHT22;3720;48.274;7.796;2023-05-02T08:33:23;16.90;99.90
7360;DHT22;3720;48.274;7.796;2023-05-02T08:35:55;17.00;99.90
7360;DHT22;3720;48.274;7.796;2023-05-02T08:38:29;17.10;99.90
7360;DHT22;3720;48.274;7.796;2023-05-02T08:41:00;17.10;99.90
7360;DHT22;3720;48.274;7.796;2023-05-02T08:43:32;17.20;99.90
7360;DHT22;3720;48.274;7.796;2023-05-02T08:46:05;17.20;99.90
7360;DHT22;3720;48.274;7.796;2023-05-02T08:48:39;17.30;99.90
7360;DHT22;3720;48.274;7.796;2023-05-02T08:51:13;17.40;99.90
7360;DHT22;3720;48.274;7.796;2023-05-02T08:53:47;17.40;99.90
7360;DHT22;3720;48.274;7.796;2023-05-02T08:56:20;17.50;99.90
7360;DHT22;3720;48.274;7.796;2023-05-02T08:58:52;17.60;99.90
7360;DHT22;3720;48.274;7.796;2023-05-02T09:01:29;17.70;99.90
7360;DHT22;3720;48.274;7.796;2023-05-02T09:04:00;17.70;99.90
7360;DHT22;3720;48.274;7.796;2023-05-02T09:06:32;17.70;99.90
7360;DHT22;3720;48.274;7.796;2023-05-02T09:09:06;17.80;99.90
7360;DHT22;3720;48.274;7.796;2023-05-02T09:11:39;17.90;99.90
7360;DHT22;3720;48.274;7.796;2023-05-02T09:14:13;18.00;99.90
7360;DHT22;3720;48.274;7.796;2023-05-02T09:16:46;18.20;99.90
7360;DHT22;3720;48.274;7.796;2023-05-02T09:19:24;18.30;99.90
7360;DHT22;3720;48.274;7.796;2023-05-02T09:22:00;18.50;99.90
7360;DHT22;3720;48.274;7.796;2023-05-02T09:24:34;18.60;99.90
7360;DHT22;3720;48.274;7.796;2023-05-02T09:27:05;18.60;99.90
7360;DHT22;3720;48.274;7.796;2023-05-02T09:29:37;18.70;99.90
7360;DHT22;3720;48.274;7.796;2023-05-02T09:32:10;18.70;99.90
7360;DHT22;3720;48.274;7.796;2023-05-02T09:35:05;18.80;99.90
7360;DHT22;3720;48.274;7.796;2023-05-02T09:37:37;18.90;99.90
7360;DHT22;3720;48.274;7.796;2023-05-02T09:40:13;19.10;99.90
7360;DHT22;3720;48.274;7.796;2023-05-02T09:42:45;19.30;99.90
7360;DHT22;3720;48.274;7.796;2023-05-02T09:45:20;19.50;99.90
7360;DHT22;3720;48.274;7.796;2023-05-02T09:47:52;19.70;99.90
7360;DHT22;3720;48.274;7.796;2023-05-02T09:50:34;19.70;99.90
7360;DHT22;3720;48.274;7.796;2023-05-02T09:53:08;19.80;99.90
7360;DHT22;3720;48.274;7.796;2023-05-02T09:55:42;19.90;99.90
7360;DHT22;3720;48.274;7.796;2023-05-02T09:58:21;20.00;99.90
7360;DHT22;3720;48.274;7.796;2023-05-02T10:00:55;20.20;99.90
7360;DHT22;3720;48.274;7.796;2023-05-02T10:03:28;20.30;99.90
7360;DHT22;3720;48.274;7.796;2023-05-02T10:06:01;20.40;99.90
7360;DHT22;3720;48.274;7.796;2023-05-02T10:08:34;20.50;99.90
7360;DHT22;3720;48.274;7.796;2023-05-02T10:11:09;20.50;99.90
7360;DHT22;3720;48.274;7.796;2023-05-02T10:13:43;20.60;99.90
7360;DHT22;3720;48.274;7.796;2023-05-02T10:16:20;20.70;99.90
7360;DHT22;3720;48.274;7.796;2023-05-02T10:19:00;20.80;99.90
7360;DHT22;3720;48.274;7.796;2023-05-02T10:21:35;20.90;99.90
7360;DHT22;3720;48.274;7.796;2023-05-02T10:24:08;20.80;99.90
7360;DHT22;3720;48.274;7.796;2023-05-02T10:26:42;20.90;99.90
7360;DHT22;3720;48.274;7.796;2023-05-02T10:29:14;21.00;99.90
7360;DHT22;3720;48.274;7.796;2023-05-02T10:31:48;21.00;99.90
7360;DHT22;3720;48.274;7.796;2023-05-02T10:34:21;21.10;99.90
7360;DHT22;3720;48.274;7.796;2023-05-02T10:36:54;21.20;99.90
7360;DHT22;3720;48.274;7.796;2023-05-02T10:39:30;21.10;99.90
7360;DHT22;3720;48.274;7.796;2023-05-02T10:42:05;21.10;99.90
7360;DHT22;3720;48.274;7.796;2023-05-02T10:44:39;21.20;99.90
7360;DHT22;3720;48.274;7.796;2023-05-02T10:47:19;21.40;99.90
7360;DHT22;3720;48.274;7.796;2023-05-02T10:49:52;21.70;99.90
7360;DHT22;3720;48.274;7.796;2023-05-02T10:52:26;21.90;99.90
7360;DHT22;3720;48.274;7.796;2023-05-02T10:55:15;22.00;99.90
7360;DHT22;3720;48.274;7.796;2023-05-02T10:58:20;22.30;99.90
7360;DHT22;3720;48.274;7.796;2023-05-02T11:01:31;22.50;99.90
7360;DHT22;3720;48.274;7.796;2023-05-02T11:04:05;22.50;99.90
7360;DHT22;3720;48.274;7.796;2023-05-02T11:09:42;22.30;99.90
7360;DHT22;3720;48.274;7.796;2023-05-02T11:12:45;22.40;99.90
7360;DHT22;3720;48.274;7.796;2023-05-02T11:15:53;22.30;99.90
7360;DHT22;3720;48.274;7.796;2023-05-02T11:18:26;22.00;99.90
7360;DHT22;3720;48.274;7.796;2023-05-02T11:21:27;21.80;99.90
7360;DHT22;3720;48.274;7.796;2023-05-02T11:24:35;21.60;99.90
7360;DHT22;3720;48.274;7.796;2023-05-02T11:30:36;21.70;99.90
7360;DHT22;3720;48.274;7.796;2023-05-02T11:33:13;21.90;99.90
7360;DHT22;3720;48.274;7.796;2023-05-02T11:35:50;22.30;99.90
7360;DHT22;3720;48.274;7.796;2023-05-02T11:38:22;22.80;99.90
7360;DHT22;3720;48.274;7.796;2023-05-02T11:40:56;23.20;99.90
7360;DHT22;3720;48.274;7.796;2023-05-02T11:43:29;23.60;99.90
7360;DHT22;3720;48.274;7.796;2023-05-02T11:46:01;23.90;99.90
7360;DHT22;3720;48.274;7.796;2023-05-02T11:48:35;24.20;99.90
7360;DHT22;3720;48.274;7.796;2023-05-02T11:51:08;24.40;99.90
7360;DHT22;3720;48.274;7.796;2023-05-02T11:53:40;24.50;99.90
7360;DHT22;3720;48.274;7.796;2023-05-02T11:56:12;24.50;99.90
7360;DHT22;3720;48.274;7.796;2023-05-02T11:58:45;24.60;99.90
7360;DHT22;3720;48.274;7.796;2023-05-02T12:01:28;24.70;99.90
7360;DHT22;3720;48.274;7.796;2023-05-02T12:04:02;24.70;99.90
7360;DHT22;3720;48.274;7.796;2023-05-02T12:06:36;24.80;99.90
7360;DHT22;3720;48.274;7.796;2023-05-02T12:09:12;25.00;99.90
7360;DHT22;3720;48.274;7.796;2023-05-02T12:11:50;25.10;99.90
7360;DHT22;3720;48.274;7.796;2023-05-02T12:14:36;25.10;99.90
7360;DHT22;3720;48.274;7.796;2023-05-02T12:17:08;25.30;99.90
7360;DHT22;3720;48.274;7.796;2023-05-02T12:19:41;25.40;99.90
7360;DHT22;3720;48.274;7.796;2023-05-02T12:22:15;25.70;99.90
7360;DHT22;3720;48.274;7.796;2023-05-02T12:24:47;25.80;99.90
7360;DHT22;3720;48.274;7.796;2023-05-02T12:27:20;25.70;99.70
7360;DHT22;3720;48.274;7.796;2023-05-02T12:29:52;25.70;99.90
7360;DHT22;3720;48.274;7.796;2023-05-02T12:32:29;25.70;99.80
7360;DHT22;3720;48.274;7.796;2023-05-02T12:35:02;25.70;99.00
7360;DHT22;3720;48.274;7.796;2023-05-02T12:37:36;25.70;98.30
7360;DHT22;3720;48.274;7.796;2023-05-02T12:40:14;25.70;98.50
7360;DHT22;3720;48.274;7.796;2023-05-02T12:43:00;25.70;98.00
7360;DHT22;3720;48.274;7.796;2023-05-02T12:45:33;25.70;97.10
7360;DHT22;3720;48.274;7.796;2023-05-02T12:48:22;25.70;97.50
7360;DHT22;3720;48.274;7.796;2023-05-02T12:50:54;25.70;98.00
7360;DHT22;3720;48.274;7.796;2023-05-02T12:53:41;25.90;97.30
7360;DHT22;3720;48.274;7.796;2023-05-02T12:56:13;25.90;96.50
7360;DHT22;3720;48.274;7.796;2023-05-02T12:58:46;26.20;96.80
7360;DHT22;3720;48.274;7.796;2023-05-02T13:01:18;26.30;96.00
7360;DHT22;3720;48.274;7.796;2023-05-02T13:03:50;26.50;96.00
7360;DHT22;3720;48.274;7.796;2023-05-02T13:06:22;26.60;95.40
7360;DHT22;3720;48.274;7.796;2023-05-02T13:08:55;26.80;96.60
7360;DHT22;3720;48.274;7.796;2023-05-02T13:11:28;26.80;95.50
7360;DHT22;3720;48.274;7.796;2023-05-02T13:13:59;26.70;94.80
7360;DHT22;3720;48.274;7.796;2023-05-02T13:16:34;26.60;94.50
7360;DHT22;3720;48.274;7.796;2023-05-02T13:19:06;26.40;94.80
7360;DHT22;3720;48.274;7.796;2023-05-02T13:21:39;26.30;94.60
7360;DHT22;3720;48.274;7.796;2023-05-02T13:24:12;26.20;95.10
7360;DHT22;3720;48.274;7.796;2023-05-02T13:26:45;26.20;95.70
7360;DHT22;3720;48.274;7.796;2023-05-02T13:29:17;26.30;94.70
7360;DHT22;3720;48.274;7.796;2023-05-02T13:31:48;26.30;94.10
7360;DHT22;3720;48.274;7.796;2023-05-02T13:34:20;26.20;93.20
7360;DHT22;3720;48.274;7.796;2023-05-02T13:36:52;26.20;93.00
7360;DHT22;3720;48.274;7.796;2023-05-02T13:39:26;26.20;93.60
7360;DHT22;3720;48.274;7.796;2023-05-02T13:41:57;26.40;93.40
7360;DHT22;3720;48.274;7.796;2023-05-02T13:44:31;26.40;92.50
7360;DHT22;3720;48.274;7.796;2023-05-02T13:47:03;26.40;91.40
7360;DHT22;3720;48.274;7.796;2023-05-02T13:49:35;26.40;90.40
7360;DHT22;3720;48.274;7.796;2023-05-02T13:52:07;26.40;91.70
7360;DHT22;3720;48.274;7.796;2023-05-02T13:54:41;26.20;92.20
7360;DHT22;3720;48.274;7.796;2023-05-02T13:57:13;26.00;92.70
7360;DHT22;3720;48.274;7.796;2023-05-02T13:59:45;26.00;93.60
7360;DHT22;3720;48.274;7.796;2023-05-02T14:02:17;26.10;92.80
7360;DHT22;3720;48.274;7.796;2023-05-02T14:04:49;26.10;94.30
7360;DHT22;3720;48.274;7.796;2023-05-02T14:07:21;26.10;93.90
7360;DHT22;3720;48.274;7.796;2023-05-02T14:09:55;25.90;94.50
7360;DHT22;3720;48.274;7.796;2023-05-02T14:12:27;25.40;93.90
7360;DHT22;3720;48.274;7.796;2023-05-02T14:14:58;25.00;94.50
7360;DHT22;3720;48.274;7.796;2023-05-02T14:17:30;24.80;95.40
7360;DHT22;3720;48.274;7.796;2023-05-02T14:20:03;24.50;96.30
7360;DHT22;3720;48.274;7.796;2023-05-02T14:22:35;24.10;97.50
7360;DHT22;3720;48.274;7.796;2023-05-02T14:25:08;23.40;98.80
7360;DHT22;3720;48.274;7.796;2023-05-02T14:27:40;23.10;99.90
7360;DHT22;3720;48.274;7.796;2023-05-02T14:30:13;23.10;99.90
7360;DHT22;3720;48.274;7.796;2023-05-02T14:32:45;23.40;99.90
7360;DHT22;3720;48.274;7.796;2023-05-02T14:35:17;23.60;99.90
7360;DHT22;3720;48.274;7.796;2023-05-02T14:37:49;23.60;99.90
7360;DHT22;3720;48.274;7.796;2023-05-02T14:40:22;23.60;99.90
7360;DHT22;3720;48.274;7.796;2023-05-02T14:42:54;23.70;99.90
7360;DHT22;3720;48.274;7.796;2023-05-02T14:45:26;23.70;98.70
7360;DHT22;3720;48.274;7.796;2023-05-02T14:47:58;23.60;98.70
7360;DHT22;3720;48.274;7.796;2023-05-02T14:50:30;23.70;99.00
7360;DHT22;3720;48.274;7.796;2023-05-02T14:53:01;23.90;99.20
7360;DHT22;3720;48.274;7.796;2023-05-02T14:55:37;24.10;98.30
7360;DHT22;3720;48.274;7.796;2023-05-02T14:58:09;24.20;99.00
7360;DHT22;3720;48.274;7.796;2023-05-02T15:00:41;24.20;98.20
7360;DHT22;3720;48.274;7.796;2023-05-02T15:03:13;24.20;98.60
7360;DHT22;3720;48.274;7.796;2023-05-02T15:05:45;24.20;98.60
7360;DHT22;3720;48.274;7.796;2023-05-02T15:08:17;24.40;98.30
7360;DHT22;3720;48.274;7.796;2023-05-02T15:10:50;24.40;96.70
7360;DHT22;3720;48.274;7.796;2023-05-02T15:13:23;24.30;96.00
7360;DHT22;3720;48.274;7.796;2023-05-02T15:15:55;24.30;95.90
7360;DHT22;3720;48.274;7.796;2023-05-02T15:18:27;24.20;96.80
7360;DHT22;3720;48.274;7.796;2023-05-02T15:21:00;24.30;97.10
7360;DHT22;3720;48.274;7.796;2023-05-02T15:23:32;24.10;96.40
7360;DHT22;3720;48.274;7.796;2023-05-02T15:26:05;23.90;96.20
7360;DHT22;3720;48.274;7.796;2023-05-02T15:28:37;23.80;95.80
7360;DHT22;3720;48.274;7.796;2023-05-02T15:31:10;23.80;95.20
7360;DHT22;3720;48.274;7.796;2023-05-02T15:33:42;23.80;95.00
7360;DHT22;3720;48.274;7.796;2023-05-02T15:36:14;23.70;95.20
7360;DHT22;3720;48.274;7.796;2023-05-02T15:38:46;23.70;95.60
7360;DHT22;3720;48.274;7.796;2023-05-02T15:41:20;23.70;95.20
7360;DHT22;3720;48.274;7.796;2023-05-02T15:43:51;23.70;95.70
7360;DHT22;3720;48.274;7.796;2023-05-02T15:46:24;23.50;95.60
7360;DHT22;3720;48.274;7.796;2023-05-02T15:48:56;23.40;96.30
7360;DHT22;3720;48.274;7.796;2023-05-02T15:51:28;23.40;96.40
7360;DHT22;3720;48.274;7.796;2023-05-02T15:54:00;23.40;96.60
7360;DHT22;3720;48.274;7.796;2023-05-02T15:56:33;23.40;96.60
7360;DHT22;3720;48.274;7.796;2023-05-02T15:59:06;23.50;96.40
7360;DHT22;3720;48.274;7.796;2023-05-02T16:01:38;23.40;95.20
7360;DHT22;3720;48.274;7.796;2023-05-02T16:04:10;23.20;94.80
7360;DHT22;3720;48.274;7.796;2023-05-02T16:06:42;23.20;94.40
7360;DHT22;3720;48.274;7.796;2023-05-02T16:09:14;23.10;93.70
7360;DHT22;3720;48.274;7.796;2023-05-02T16:11:48;23.10;93.90
7360;DHT22;3720;48.274;7.796;2023-05-02T16:14:19;23.00;93.50
7360;DHT22;3720;48.274;7.796;2023-05-02T16:16:53;22.90;93.10
7360;DHT22;3720;48.274;7.796;2023-05-02T16:19:25;22.90;92.70
7360;DHT22;3720;48.274;7.796;2023-05-02T16:21:57;22.90;92.70
7360;DHT22;3720;48.274;7.796;2023-05-02T16:24:29;22.80;92.70
7360;DHT22;3720;48.274;7.796;2023-05-02T16:27:02;22.80;93.20
7360;DHT22;3720;48.274;7.796;2023-05-02T16:29:34;22.70;93.40
7360;DHT22;3720;48.274;7.796;2023-05-02T16:32:06;22.80;93.60
7360;DHT22;3720;48.274;7.796;2023-05-02T16:34:38;22.70;93.40
7360;DHT22;3720;48.274;7.796;2023-05-02T16:37:10;22.60;93.20
7360;DHT22;3720;48.274;7.796;2023-05-02T16:39:43;22.50;92.80
7360;DHT22;3720;48.274;7.796;2023-05-02T16:42:17;22.40;92.10
7360;DHT22;3720;48.274;7.796;2023-05-02T16:44:49;22.40;92.70
7360;DHT22;3720;48.274;7.796;2023-05-02T16:47:21;22.40;93.30
7360;DHT22;3720;48.274;7.796;2023-05-02T16:49:53;22.40;93.60
7360;DHT22;3720;48.274;7.796;2023-05-02T16:52:25;22.40;93.60